<?xml version="1.0" encoding="UTF-8" standalone="no" ?>
<gpx version="1.1" creator="Visorando" xmlns:xsi="http://www.w3.org/2001/XMLSchema-instance" xmlns="http://www.topografix.com/GPX/1/1" xsi:schemaLocation="http://www.topografix.com/GPX/1/1 http://www.topografix.com/GPX/1/1/gpx.xsd">
 <metadata>
  <name>Randonnée du 31/08/2020 à 11:54</name>
  <link href="https://www.visorando.com/randonnee-/3946766">
   <text>https://www.visorando.com/randonnee-/3946766</text>
  </link>
 </metadata>
 <trk>
  <name>Randonnée du 31/08/2020 à 11:54</name>
  <trkseg>
   <trkpt lat="47.950519" lon="6.596661">
    <ele>714</ele>
    <time>2020-08-31T11:54:32+02:00</time>
   </trkpt>
   <trkpt lat="47.950806" lon="6.597047">
    <ele>715</ele>
    <time>2020-08-31T11:54:37+02:00</time>
   </trkpt>
   <trkpt lat="47.951151" lon="6.597305">
    <ele>720</ele>
    <time>2020-08-31T11:54:42+02:00</time>
   </trkpt>
   <trkpt lat="47.95141" lon="6.597519">
    <ele>720</ele>
    <time>2020-08-31T11:54:47+02:00</time>
   </trkpt>
   <trkpt lat="47.951669" lon="6.598077">
    <ele>722</ele>
    <time>2020-08-31T11:54:52+02:00</time>
   </trkpt>
   <trkpt lat="47.952042" lon="6.598978">
    <ele>723</ele>
    <time>2020-08-31T11:54:57+02:00</time>
   </trkpt>
   <trkpt lat="47.952157" lon="6.599536">
    <ele>730</ele>
    <time>2020-08-31T11:55:02+02:00</time>
   </trkpt>
   <trkpt lat="47.95256" lon="6.599665">
    <ele>726</ele>
    <time>2020-08-31T11:55:07+02:00</time>
   </trkpt>
   <trkpt lat="47.953106" lon="6.600008">
    <ele>719</ele>
    <time>2020-08-31T11:55:12+02:00</time>
   </trkpt>
   <trkpt lat="47.953393" lon="6.600352">
    <ele>717</ele>
    <time>2020-08-31T11:55:17+02:00</time>
   </trkpt>
   <trkpt lat="47.953566" lon="6.600652">
    <ele>714</ele>
    <time>2020-08-31T11:55:22+02:00</time>
   </trkpt>
   <trkpt lat="47.953738" lon="6.600867">
    <ele>711</ele>
    <time>2020-08-31T11:55:27+02:00</time>
   </trkpt>
   <trkpt lat="47.954054" lon="6.601167">
    <ele>705</ele>
    <time>2020-08-31T11:55:32+02:00</time>
   </trkpt>
   <trkpt lat="47.954485" lon="6.601467">
    <ele>701</ele>
    <time>2020-08-31T11:55:37+02:00</time>
   </trkpt>
   <trkpt lat="47.954687" lon="6.602068">
    <ele>699</ele>
    <time>2020-08-31T11:55:42+02:00</time>
   </trkpt>
   <trkpt lat="47.95483" lon="6.602712">
    <ele>696</ele>
    <time>2020-08-31T11:55:47+02:00</time>
   </trkpt>
   <trkpt lat="47.955606" lon="6.60327">
    <ele>690</ele>
    <time>2020-08-31T11:55:52+02:00</time>
   </trkpt>
   <trkpt lat="47.955807" lon="6.603828">
    <ele>690</ele>
    <time>2020-08-31T11:55:57+02:00</time>
   </trkpt>
   <trkpt lat="47.956095" lon="6.604128">
    <ele>689</ele>
    <time>2020-08-31T11:56:02+02:00</time>
   </trkpt>
   <trkpt lat="47.95644" lon="6.604257">
    <ele>687</ele>
    <time>2020-08-31T11:56:07+02:00</time>
   </trkpt>
   <trkpt lat="47.956842" lon="6.604257">
    <ele>688</ele>
    <time>2020-08-31T11:56:12+02:00</time>
   </trkpt>
   <trkpt lat="47.957359" lon="6.6043">
    <ele>691</ele>
    <time>2020-08-31T11:56:17+02:00</time>
   </trkpt>
   <trkpt lat="47.957704" lon="6.604472">
    <ele>691</ele>
    <time>2020-08-31T11:56:22+02:00</time>
   </trkpt>
   <trkpt lat="47.958164" lon="6.604257">
    <ele>690</ele>
    <time>2020-08-31T11:56:27+02:00</time>
   </trkpt>
   <trkpt lat="47.958681" lon="6.604257">
    <ele>691</ele>
    <time>2020-08-31T11:56:32+02:00</time>
   </trkpt>
   <trkpt lat="47.95917" lon="6.6043">
    <ele>686</ele>
    <time>2020-08-31T11:56:37+02:00</time>
   </trkpt>
   <trkpt lat="47.959773" lon="6.6043">
    <ele>685</ele>
    <time>2020-08-31T11:56:42+02:00</time>
   </trkpt>
   <trkpt lat="47.960233" lon="6.604171">
    <ele>695</ele>
    <time>2020-08-31T11:56:47+02:00</time>
   </trkpt>
   <trkpt lat="47.960578" lon="6.604343">
    <ele>699</ele>
    <time>2020-08-31T11:56:52+02:00</time>
   </trkpt>
   <trkpt lat="47.960722" lon="6.604858">
    <ele>701</ele>
    <time>2020-08-31T11:56:57+02:00</time>
   </trkpt>
   <trkpt lat="47.96098" lon="6.605673">
    <ele>705</ele>
    <time>2020-08-31T11:57:02+02:00</time>
   </trkpt>
   <trkpt lat="47.961498" lon="6.606403">
    <ele>713</ele>
    <time>2020-08-31T11:57:07+02:00</time>
   </trkpt>
   <trkpt lat="47.961871" lon="6.606145">
    <ele>719</ele>
    <time>2020-08-31T11:57:12+02:00</time>
   </trkpt>
   <trkpt lat="47.962159" lon="6.606145">
    <ele>723</ele>
    <time>2020-08-31T11:57:17+02:00</time>
   </trkpt>
   <trkpt lat="47.962676" lon="6.606317">
    <ele>730</ele>
    <time>2020-08-31T11:57:22+02:00</time>
   </trkpt>
   <trkpt lat="47.963193" lon="6.605673">
    <ele>733</ele>
    <time>2020-08-31T11:57:27+02:00</time>
   </trkpt>
   <trkpt lat="47.963423" lon="6.605416">
    <ele>732</ele>
    <time>2020-08-31T11:57:32+02:00</time>
   </trkpt>
   <trkpt lat="47.9644" lon="6.604901">
    <ele>730</ele>
    <time>2020-08-31T11:57:37+02:00</time>
   </trkpt>
   <trkpt lat="47.964975" lon="6.605115">
    <ele>730</ele>
    <time>2020-08-31T11:57:42+02:00</time>
   </trkpt>
   <trkpt lat="47.965636" lon="6.605416">
    <ele>727</ele>
    <time>2020-08-31T11:57:47+02:00</time>
   </trkpt>
   <trkpt lat="47.966239" lon="6.605587">
    <ele>722</ele>
    <time>2020-08-31T11:57:52+02:00</time>
   </trkpt>
   <trkpt lat="47.96667" lon="6.605287">
    <ele>720</ele>
    <time>2020-08-31T11:57:57+02:00</time>
   </trkpt>
   <trkpt lat="47.967015" lon="6.605072">
    <ele>718</ele>
    <time>2020-08-31T11:58:02+02:00</time>
   </trkpt>
   <trkpt lat="47.967187" lon="6.604772">
    <ele>716</ele>
    <time>2020-08-31T11:58:07+02:00</time>
   </trkpt>
   <trkpt lat="47.966785" lon="6.605287">
    <ele>719</ele>
    <time>2020-08-31T11:58:12+02:00</time>
   </trkpt>
   <trkpt lat="47.966383" lon="6.605459">
    <ele>722</ele>
    <time>2020-08-31T11:58:17+02:00</time>
   </trkpt>
   <trkpt lat="47.965406" lon="6.605459">
    <ele>728</ele>
    <time>2020-08-31T11:58:22+02:00</time>
   </trkpt>
   <trkpt lat="47.964774" lon="6.604944">
    <ele>730</ele>
    <time>2020-08-31T11:58:27+02:00</time>
   </trkpt>
   <trkpt lat="47.964429" lon="6.604944">
    <ele>730</ele>
    <time>2020-08-31T11:58:32+02:00</time>
   </trkpt>
   <trkpt lat="47.964055" lon="6.605029">
    <ele>730</ele>
    <time>2020-08-31T11:58:37+02:00</time>
   </trkpt>
   <trkpt lat="47.963538" lon="6.60533">
    <ele>731</ele>
    <time>2020-08-31T11:58:42+02:00</time>
   </trkpt>
   <trkpt lat="47.963164" lon="6.605759">
    <ele>733</ele>
    <time>2020-08-31T11:58:47+02:00</time>
   </trkpt>
   <trkpt lat="47.962906" lon="6.60636">
    <ele>732</ele>
    <time>2020-08-31T11:58:52+02:00</time>
   </trkpt>
   <trkpt lat="47.962848" lon="6.606531">
    <ele>732</ele>
    <time>2020-08-31T11:58:57+02:00</time>
   </trkpt>
   <trkpt lat="47.962877" lon="6.606746">
    <ele>732</ele>
    <time>2020-08-31T11:59:02+02:00</time>
   </trkpt>
   <trkpt lat="47.962906" lon="6.606832">
    <ele>732</ele>
    <time>2020-08-31T11:59:07+02:00</time>
   </trkpt>
   <trkpt lat="47.96282" lon="6.607089">
    <ele>732</ele>
    <time>2020-08-31T11:59:12+02:00</time>
   </trkpt>
   <trkpt lat="47.96282" lon="6.607433">
    <ele>734</ele>
    <time>2020-08-31T11:59:17+02:00</time>
   </trkpt>
   <trkpt lat="47.962906" lon="6.607948">
    <ele>734</ele>
    <time>2020-08-31T11:59:22+02:00</time>
   </trkpt>
   <trkpt lat="47.962963" lon="6.608205">
    <ele>734</ele>
    <time>2020-08-31T11:59:27+02:00</time>
   </trkpt>
   <trkpt lat="47.962619" lon="6.608549">
    <ele>734</ele>
    <time>2020-08-31T11:59:32+02:00</time>
   </trkpt>
   <trkpt lat="47.962245" lon="6.609021">
    <ele>734</ele>
    <time>2020-08-31T11:59:37+02:00</time>
   </trkpt>
   <trkpt lat="47.961785" lon="6.609536">
    <ele>726</ele>
    <time>2020-08-31T11:59:42+02:00</time>
   </trkpt>
   <trkpt lat="47.961584" lon="6.609836">
    <ele>723</ele>
    <time>2020-08-31T11:59:47+02:00</time>
   </trkpt>
   <trkpt lat="47.961383" lon="6.610051">
    <ele>720</ele>
    <time>2020-08-31T11:59:52+02:00</time>
   </trkpt>
   <trkpt lat="47.961153" lon="6.610566">
    <ele>719</ele>
    <time>2020-08-31T11:59:57+02:00</time>
   </trkpt>
   <trkpt lat="47.960751" lon="6.611209">
    <ele>715</ele>
    <time>2020-08-31T12:00:02+02:00</time>
   </trkpt>
   <trkpt lat="47.960549" lon="6.610823">
    <ele>711</ele>
    <time>2020-08-31T12:00:07+02:00</time>
   </trkpt>
   <trkpt lat="47.960549" lon="6.61048">
    <ele>709</ele>
    <time>2020-08-31T12:00:12+02:00</time>
   </trkpt>
   <trkpt lat="47.960147" lon="6.609664">
    <ele>701</ele>
    <time>2020-08-31T12:00:17+02:00</time>
   </trkpt>
   <trkpt lat="47.959888" lon="6.609321">
    <ele>700</ele>
    <time>2020-08-31T12:00:22+02:00</time>
   </trkpt>
   <trkpt lat="47.959716" lon="6.609021">
    <ele>698</ele>
    <time>2020-08-31T12:00:27+02:00</time>
   </trkpt>
   <trkpt lat="47.959745" lon="6.608591">
    <ele>695</ele>
    <time>2020-08-31T12:00:32+02:00</time>
   </trkpt>
   <trkpt lat="47.959227" lon="6.608463">
    <ele>693</ele>
    <time>2020-08-31T12:00:37+02:00</time>
   </trkpt>
   <trkpt lat="47.958796" lon="6.608591">
    <ele>685</ele>
    <time>2020-08-31T12:00:42+02:00</time>
   </trkpt>
   <trkpt lat="47.958337" lon="6.608677">
    <ele>677</ele>
    <time>2020-08-31T12:00:47+02:00</time>
   </trkpt>
   <trkpt lat="47.95802" lon="6.608849">
    <ele>669</ele>
    <time>2020-08-31T12:00:52+02:00</time>
   </trkpt>
   <trkpt lat="47.957589" lon="6.609321">
    <ele>662</ele>
    <time>2020-08-31T12:00:57+02:00</time>
   </trkpt>
   <trkpt lat="47.957532" lon="6.608935">
    <ele>661</ele>
    <time>2020-08-31T12:01:02+02:00</time>
   </trkpt>
   <trkpt lat="47.957532" lon="6.608677">
    <ele>660</ele>
    <time>2020-08-31T12:01:07+02:00</time>
   </trkpt>
   <trkpt lat="47.957417" lon="6.608463">
    <ele>656</ele>
    <time>2020-08-31T12:01:12+02:00</time>
   </trkpt>
   <trkpt lat="47.957561" lon="6.608119">
    <ele>659</ele>
    <time>2020-08-31T12:01:17+02:00</time>
   </trkpt>
   <trkpt lat="47.957561" lon="6.607733">
    <ele>659</ele>
    <time>2020-08-31T12:01:22+02:00</time>
   </trkpt>
   <trkpt lat="47.957532" lon="6.607175">
    <ele>664</ele>
    <time>2020-08-31T12:01:27+02:00</time>
   </trkpt>
   <trkpt lat="47.957359" lon="6.606961">
    <ele>666</ele>
    <time>2020-08-31T12:01:32+02:00</time>
   </trkpt>
   <trkpt lat="47.957187" lon="6.606746">
    <ele>667</ele>
    <time>2020-08-31T12:01:37+02:00</time>
   </trkpt>
   <trkpt lat="47.957187" lon="6.606274">
    <ele>672</ele>
    <time>2020-08-31T12:01:42+02:00</time>
   </trkpt>
   <trkpt lat="47.956785" lon="6.60636">
    <ele>673</ele>
    <time>2020-08-31T12:01:47+02:00</time>
   </trkpt>
   <trkpt lat="47.956526" lon="6.606446">
    <ele>677</ele>
    <time>2020-08-31T12:01:52+02:00</time>
   </trkpt>
   <trkpt lat="47.956354" lon="6.606617">
    <ele>679</ele>
    <time>2020-08-31T12:01:57+02:00</time>
   </trkpt>
   <trkpt lat="47.956009" lon="6.606617">
    <ele>684</ele>
    <time>2020-08-31T12:02:02+02:00</time>
   </trkpt>
   <trkpt lat="47.955779" lon="6.606574">
    <ele>683</ele>
    <time>2020-08-31T12:02:07+02:00</time>
   </trkpt>
   <trkpt lat="47.955779" lon="6.606102">
    <ele>687</ele>
    <time>2020-08-31T12:02:12+02:00</time>
   </trkpt>
   <trkpt lat="47.955865" lon="6.60533">
    <ele>689</ele>
    <time>2020-08-31T12:02:17+02:00</time>
   </trkpt>
   <trkpt lat="47.955664" lon="6.605287">
    <ele>687</ele>
    <time>2020-08-31T12:02:22+02:00</time>
   </trkpt>
   <trkpt lat="47.95529" lon="6.605416">
    <ele>682</ele>
    <time>2020-08-31T12:02:27+02:00</time>
   </trkpt>
   <trkpt lat="47.95506" lon="6.605416">
    <ele>680</ele>
    <time>2020-08-31T12:02:32+02:00</time>
   </trkpt>
   <trkpt lat="47.95483" lon="6.605416">
    <ele>678</ele>
    <time>2020-08-31T12:02:37+02:00</time>
   </trkpt>
   <trkpt lat="47.9546" lon="6.605072">
    <ele>679</ele>
    <time>2020-08-31T12:02:42+02:00</time>
   </trkpt>
   <trkpt lat="47.95437" lon="6.604944">
    <ele>678</ele>
    <time>2020-08-31T12:02:47+02:00</time>
   </trkpt>
   <trkpt lat="47.954342" lon="6.604171">
    <ele>687</ele>
    <time>2020-08-31T12:02:52+02:00</time>
   </trkpt>
   <trkpt lat="47.954284" lon="6.603785">
    <ele>691</ele>
    <time>2020-08-31T12:02:57+02:00</time>
   </trkpt>
   <trkpt lat="47.954054" lon="6.602927">
    <ele>695</ele>
    <time>2020-08-31T12:03:02+02:00</time>
   </trkpt>
   <trkpt lat="47.953278" lon="6.602669">
    <ele>694</ele>
    <time>2020-08-31T12:03:07+02:00</time>
   </trkpt>
   <trkpt lat="47.952387" lon="6.60254">
    <ele>692</ele>
    <time>2020-08-31T12:03:12+02:00</time>
   </trkpt>
   <trkpt lat="47.952014" lon="6.602197">
    <ele>692</ele>
    <time>2020-08-31T12:03:17+02:00</time>
   </trkpt>
   <trkpt lat="47.951582" lon="6.601897">
    <ele>693</ele>
    <time>2020-08-31T12:03:22+02:00</time>
   </trkpt>
   <trkpt lat="47.95072" lon="6.602455">
    <ele>684</ele>
    <time>2020-08-31T12:03:27+02:00</time>
   </trkpt>
   <trkpt lat="47.950346" lon="6.602884">
    <ele>677</ele>
    <time>2020-08-31T12:03:32+02:00</time>
   </trkpt>
   <trkpt lat="47.950519" lon="6.60254">
    <ele>681</ele>
    <time>2020-08-31T12:03:37+02:00</time>
   </trkpt>
   <trkpt lat="47.95049" lon="6.601553">
    <ele>688</ele>
    <time>2020-08-31T12:03:42+02:00</time>
   </trkpt>
   <trkpt lat="47.95026" lon="6.600395">
    <ele>692</ele>
    <time>2020-08-31T12:03:47+02:00</time>
   </trkpt>
   <trkpt lat="47.95026" lon="6.59988">
    <ele>696</ele>
    <time>2020-08-31T12:03:52+02:00</time>
   </trkpt>
   <trkpt lat="47.950375" lon="6.599536">
    <ele>700</ele>
    <time>2020-08-31T12:03:57+02:00</time>
   </trkpt>
   <trkpt lat="47.95026" lon="6.598807">
    <ele>701</ele>
    <time>2020-08-31T12:04:02+02:00</time>
   </trkpt>
   <trkpt lat="47.950116" lon="6.598077">
    <ele>705</ele>
    <time>2020-08-31T12:04:07+02:00</time>
   </trkpt>
   <trkpt lat="47.950375" lon="6.597519">
    <ele>709</ele>
    <time>2020-08-31T12:04:12+02:00</time>
   </trkpt>
   <trkpt lat="47.950433" lon="6.596747">
    <ele>713</ele>
    <time>2020-08-31T12:04:17+02:00</time>
   </trkpt>
  </trkseg>
 </trk></gpx>